sensor_id;sensor_type;location;lat;lon;timestamp;temperature;humidity
23083;DHT22;11709;52.420;10.538;2023-04-23T00:01:09;16.10;99.90
23083;DHT22;11709;52.420;10.538;2023-04-23T00:05:13;16.20;99.90
23083;DHT22;11709;52.420;10.538;2023-04-23T00:09:17;16.20;99.90
23083;DHT22;11709;52.420;10.538;2023-04-23T00:13:20;16.10;99.90
23083;DHT22;11709;52.420;10.538;2023-04-23T00:17:23;16.10;99.90
23083;DHT22;11709;52.420;10.538;2023-04-23T00:21:25;16.00;99.90
23083;DHT22;11709;52.420;10.538;2023-04-23T00:25:28;16.10;99.90
23083;DHT22;11709;52.420;10.538;2023-04-23T00:29:32;16.00;99.90
23083;DHT22;11709;52.420;10.538;2023-04-23T00:33:34;16.00;99.90
23083;DHT22;11709;52.420;10.538;2023-04-23T00:37:37;16.00;99.90
23083;DHT22;11709;52.420;10.538;2023-04-23T00:41:40;16.00;99.90
23083;DHT22;11709;52.420;10.538;2023-04-23T00:45:43;16.00;99.90
23083;DHT22;11709;52.420;10.538;2023-04-23T00:49:46;16.00;99.90
23083;DHT22;11709;52.420;10.538;2023-04-23T00:53:49;16.00;99.90
23083;DHT22;11709;52.420;10.538;2023-04-23T00:57:51;15.90;99.90
23083;DHT22;11709;52.420;10.538;2023-04-23T01:01:55;15.90;99.90
23083;DHT22;11709;52.420;10.538;2023-04-23T01:05:58;15.80;99.90
23083;DHT22;11709;52.420;10.538;2023-04-23T01:10:02;15.90;99.90
23083;DHT22;11709;52.420;10.538;2023-04-23T01:14:05;15.90;99.90
23083;DHT22;11709;52.420;10.538;2023-04-23T01:18:10;16.00;99.90
23083;DHT22;11709;52.420;10.538;2023-04-23T01:22:14;15.90;99.90
23083;DHT22;11709;52.420;10.538;2023-04-23T01:26:17;15.90;99.90
23083;DHT22;11709;52.420;10.538;2023-04-23T01:30:20;15.90;99.90
23083;DHT22;11709;52.420;10.538;2023-04-23T01:34:23;15.90;99.90
23083;DHT22;11709;52.420;10.538;2023-04-23T01:38:27;15.80;99.90
23083;DHT22;11709;52.420;10.538;2023-04-23T01:42:31;15.80;99.90
23083;DHT22;11709;52.420;10.538;2023-04-23T01:46:33;15.80;99.90
23083;DHT22;11709;52.420;10.538;2023-04-23T01:50:36;15.80;99.90
23083;DHT22;11709;52.420;10.538;2023-04-23T01:54:39;15.70;99.90
23083;DHT22;11709;52.420;10.538;2023-04-23T01:58:41;15.70;99.90
23083;DHT22;11709;52.420;10.538;2023-04-23T02:02:44;15.60;99.90
23083;DHT22;11709;52.420;10.538;2023-04-23T02:06:48;15.70;99.90
23083;DHT22;11709;52.420;10.538;2023-04-23T02:10:51;15.60;99.90
23083;DHT22;11709;52.420;10.538;2023-04-23T02:14:53;15.50;99.90
23083;DHT22;11709;52.420;10.538;2023-04-23T02:18:57;15.50;99.90
23083;DHT22;11709;52.420;10.538;2023-04-23T02:23:00;15.40;99.90
23083;DHT22;11709;52.420;10.538;2023-04-23T02:27:02;15.40;99.90
23083;DHT22;11709;52.420;10.538;2023-04-23T02:31:05;15.40;99.90
23083;DHT22;11709;52.420;10.538;2023-04-23T02:35:08;15.30;99.90
23083;DHT22;11709;52.420;10.538;2023-04-23T02:39:11;15.30;99.90
23083;DHT22;11709;52.420;10.538;2023-04-23T02:43:14;15.10;99.90
23083;DHT22;11709;52.420;10.538;2023-04-23T02:47:18;15.10;99.90
23083;DHT22;11709;52.420;10.538;2023-04-23T02:51:21;15.00;99.90
23083;DHT22;11709;52.420;10.538;2023-04-23T02:55:25;14.90;99.90
23083;DHT22;11709;52.420;10.538;2023-04-23T02:59:34;14.80;99.90
23083;DHT22;11709;52.420;10.538;2023-04-23T03:03:39;14.70;99.90
23083;DHT22;11709;52.420;10.538;2023-04-23T03:07:43;14.60;99.90
23083;DHT22;11709;52.420;10.538;2023-04-23T03:11:46;14.40;99.90
23083;DHT22;11709;52.420;10.538;2023-04-23T03:15:49;13.90;99.90
23083;DHT22;11709;52.420;10.538;2023-04-23T03:19:53;13.80;99.90
23083;DHT22;11709;52.420;10.538;2023-04-23T03:23:56;13.60;99.90
23083;DHT22;11709;52.420;10.538;2023-04-23T03:27:59;13.50;99.90
23083;DHT22;11709;52.420;10.538;2023-04-23T03:32:01;13.50;99.90
23083;DHT22;11709;52.420;10.538;2023-04-23T03:36:04;13.30;99.90
23083;DHT22;11709;52.420;10.538;2023-04-23T03:40:07;13.30;99.90
23083;DHT22;11709;52.420;10.538;2023-04-23T03:44:11;13.20;99.90
23083;DHT22;11709;52.420;10.538;2023-04-23T03:48:14;13.20;99.90
23083;DHT22;11709;52.420;10.538;2023-04-23T03:52:19;13.10;99.90
23083;DHT22;11709;52.420;10.538;2023-04-23T03:56:22;13.10;99.90
23083;DHT22;11709;52.420;10.538;2023-04-23T04:00:24;13.00;99.90
23083;DHT22;11709;52.420;10.538;2023-04-23T04:04:28;13.00;99.90
23083;DHT22;11709;52.420;10.538;2023-04-23T04:08:30;12.90;99.90
23083;DHT22;11709;52.420;10.538;2023-04-23T04:12:35;12.80;99.90
23083;DHT22;11709;52.420;10.538;2023-04-23T04:16:40;12.90;99.90
23083;DHT22;11709;52.420;10.538;2023-04-23T04:20:42;12.80;99.90
23083;DHT22;11709;52.420;10.538;2023-04-23T04:24:45;12.70;99.90
23083;DHT22;11709;52.420;10.538;2023-04-23T04:28:48;12.70;99.90
23083;DHT22;11709;52.420;10.538;2023-04-23T04:32:51;12.60;99.90
23083;DHT22;11709;52.420;10.538;2023-04-23T04:36:54;12.60;99.90
23083;DHT22;11709;52.420;10.538;2023-04-23T04:40:57;12.60;99.90
23083;DHT22;11709;52.420;10.538;2023-04-23T04:45:02;12.50;99.90
23083;DHT22;11709;52.420;10.538;2023-04-23T04:49:07;12.50;99.90
23083;DHT22;11709;52.420;10.538;2023-04-23T04:53:09;12.60;99.90
23083;DHT22;11709;52.420;10.538;2023-04-23T04:57:15;12.50;99.90
23083;DHT22;11709;52.420;10.538;2023-04-23T05:01:21;12.50;99.90
23083;DHT22;11709;52.420;10.538;2023-04-23T05:05:29;12.50;99.90
23083;DHT22;11709;52.420;10.538;2023-04-23T05:09:32;12.50;99.90
23083;DHT22;11709;52.420;10.538;2023-04-23T05:13:35;12.50;99.90
23083;DHT22;11709;52.420;10.538;2023-04-23T05:17:38;12.50;99.90
23083;DHT22;11709;52.420;10.538;2023-04-23T05:21:43;12.40;99.90
23083;DHT22;11709;52.420;10.538;2023-04-23T05:25:45;12.40;99.90
23083;DHT22;11709;52.420;10.538;2023-04-23T05:29:50;12.50;99.90
23083;DHT22;11709;52.420;10.538;2023-04-23T05:33:52;12.50;99.90
23083;DHT22;11709;52.420;10.538;2023-04-23T05:37:55;12.50;99.90
23083;DHT22;11709;52.420;10.538;2023-04-23T05:41:57;12.30;99.90
23083;DHT22;11709;52.420;10.538;2023-04-23T05:46:00;12.30;99.90
23083;DHT22;11709;52.420;10.538;2023-04-23T05:50:05;12.20;99.90
23083;DHT22;11709;52.420;10.538;2023-04-23T05:54:09;12.30;99.90
23083;DHT22;11709;52.420;10.538;2023-04-23T05:58:12;12.30;99.90
23083;DHT22;11709;52.420;10.538;2023-04-23T06:02:16;12.20;99.90
23083;DHT22;11709;52.420;10.538;2023-04-23T06:06:19;12.20;99.90
23083;DHT22;11709;52.420;10.538;2023-04-23T06:10:21;12.10;99.90
23083;DHT22;11709;52.420;10.538;2023-04-23T06:14:24;12.10;99.90
23083;DHT22;11709;52.420;10.538;2023-04-23T06:18:26;12.10;99.90
23083;DHT22;11709;52.420;10.538;2023-04-23T06:22:29;12.10;99.90
23083;DHT22;11709;52.420;10.538;2023-04-23T06:26:32;12.10;99.90
23083;DHT22;11709;52.420;10.538;2023-04-23T06:30:35;12.00;99.90
23083;DHT22;11709;52.420;10.538;2023-04-23T06:34:37;12.10;99.90
23083;DHT22;11709;52.420;10.538;2023-04-23T06:38:40;12.00;99.90
23083;DHT22;11709;52.420;10.538;2023-04-23T06:42:42;12.00;99.90
23083;DHT22;11709;52.420;10.538;2023-04-23T06:46:46;12.00;99.90
23083;DHT22;11709;52.420;10.538;2023-04-23T06:50:48;11.90;99.90
23083;DHT22;11709;52.420;10.538;2023-04-23T06:54:52;12.00;99.90
23083;DHT22;11709;52.420;10.538;2023-04-23T06:58:54;11.90;99.90
23083;DHT22;11709;52.420;10.538;2023-04-23T07:02:56;11.90;99.90
23083;DHT22;11709;52.420;10.538;2023-04-23T07:06:59;12.00;99.90
23083;DHT22;11709;52.420;10.538;2023-04-23T07:11:01;12.10;99.90
23083;DHT22;11709;52.420;10.538;2023-04-23T07:15:05;12.20;99.90
23083;DHT22;11709;52.420;10.538;2023-04-23T07:19:07;12.20;99.90
23083;DHT22;11709;52.420;10.538;2023-04-23T07:23:10;12.20;99.90
23083;DHT22;11709;52.420;10.538;2023-04-23T07:27:13;12.30;99.90
23083;DHT22;11709;52.420;10.538;2023-04-23T07:31:16;12.30;99.90
23083;DHT22;11709;52.420;10.538;2023-04-23T07:35:18;12.30;99.90
23083;DHT22;11709;52.420;10.538;2023-04-23T07:39:21;12.40;99.90
23083;DHT22;11709;52.420;10.538;2023-04-23T07:43:23;12.30;99.90
23083;DHT22;11709;52.420;10.538;2023-04-23T07:47:26;12.30;99.90
23083;DHT22;11709;52.420;10.538;2023-04-23T07:51:29;12.40;99.90
23083;DHT22;11709;52.420;10.538;2023-04-23T07:55:32;12.50;99.90
23083;DHT22;11709;52.420;10.538;2023-04-23T07:59:34;12.60;99.90
23083;DHT22;11709;52.420;10.538;2023-04-23T08:03:39;12.90;99.90
23083;DHT22;11709;52.420;10.538;2023-04-23T08:07:41;13.20;99.90
23083;DHT22;11709;52.420;10.538;2023-04-23T08:11:44;13.50;99.90
23083;DHT22;11709;52.420;10.538;2023-04-23T08:15:46;13.80;99.90
23083;DHT22;11709;52.420;10.538;2023-04-23T08:19:51;13.90;99.90
23083;DHT22;11709;52.420;10.538;2023-04-23T08:23:53;13.90;99.90
23083;DHT22;11709;52.420;10.538;2023-04-23T08:27:55;14.20;99.90
23083;DHT22;11709;52.420;10.538;2023-04-23T08:31:58;14.50;99.90
23083;DHT22;11709;52.420;10.538;2023-04-23T08:36:01;14.80;99.90
23083;DHT22;11709;52.420;10.538;2023-04-23T08:40:03;15.00;99.90
23083;DHT22;11709;52.420;10.538;2023-04-23T08:44:17;15.20;99.90
23083;DHT22;11709;52.420;10.538;2023-04-23T08:48:20;15.40;99.90
23083;DHT22;11709;52.420;10.538;2023-04-23T08:52:28;16.00;99.90
23083;DHT22;11709;52.420;10.538;2023-04-23T08:56:31;16.30;99.90
23083;DHT22;11709;52.420;10.538;2023-04-23T09:00:34;16.40;99.90
23083;DHT22;11709;52.420;10.538;2023-04-23T09:04:37;16.60;99.90
23083;DHT22;11709;52.420;10.538;2023-04-23T09:08:40;16.80;99.90
23083;DHT22;11709;52.420;10.538;2023-04-23T09:12:43;17.20;99.90
23083;DHT22;11709;52.420;10.538;2023-04-23T09:16:45;17.70;99.90
23083;DHT22;11709;52.420;10.538;2023-04-23T09:20:49;17.70;99.90
23083;DHT22;11709;52.420;10.538;2023-04-23T09:24:53;17.90;99.90
23083;DHT22;11709;52.420;10.538;2023-04-23T09:28:56;18.20;99.90
23083;DHT22;11709;52.420;10.538;2023-04-23T09:32:58;18.50;99.90
23083;DHT22;11709;52.420;10.538;2023-04-23T09:37:01;18.40;99.90
23083;DHT22;11709;52.420;10.538;2023-04-23T09:41:25;18.40;99.90
23083;DHT22;11709;52.420;10.538;2023-04-23T09:45:28;18.40;99.90
23083;DHT22;11709;52.420;10.538;2023-04-23T09:49:31;18.70;99.90
23083;DHT22;11709;52.420;10.538;2023-04-23T09:53:41;19.00;99.90
23083;DHT22;11709;52.420;10.538;2023-04-23T09:57:46;19.40;99.90
23083;DHT22;11709;52.420;10.538;2023-04-23T10:01:48;19.30;99.90
23083;DHT22;11709;52.420;10.538;2023-04-23T10:05:53;19.20;99.90
23083;DHT22;11709;52.420;10.538;2023-04-23T10:09:56;19.80;99.90
23083;DHT22;11709;52.420;10.538;2023-04-23T10:13:59;19.70;99.90
23083;DHT22;11709;52.420;10.538;2023-04-23T10:18:03;19.20;99.90
23083;DHT22;11709;52.420;10.538;2023-04-23T10:22:09;19.40;99.90
23083;DHT22;11709;52.420;10.538;2023-04-23T10:26:14;20.10;99.90
23083;DHT22;11709;52.420;10.538;2023-04-23T10:30:18;20.50;99.90
23083;DHT22;11709;52.420;10.538;2023-04-23T10:34:22;20.40;99.90
23083;DHT22;11709;52.420;10.538;2023-04-23T10:38:26;20.40;99.90
23083;DHT22;11709;52.420;10.538;2023-04-23T10:42:29;20.40;99.90
23083;DHT22;11709;52.420;10.538;2023-04-23T10:46:32;20.70;99.90
23083;DHT22;11709;52.420;10.538;2023-04-23T10:50:35;21.20;99.90
23083;DHT22;11709;52.420;10.538;2023-04-23T10:54:39;21.30;99.90
23083;DHT22;11709;52.420;10.538;2023-04-23T10:58:49;21.60;99.90
23083;DHT22;11709;52.420;10.538;2023-04-23T11:02:52;21.10;99.90
23083;DHT22;11709;52.420;10.538;2023-04-23T11:07:08;21.40;99.90
23083;DHT22;11709;52.420;10.538;2023-04-23T11:11:10;22.10;98.50
23083;DHT22;11709;52.420;10.538;2023-04-23T11:15:14;22.20;97.30
23083;DHT22;11709;52.420;10.538;2023-04-23T11:19:17;22.30;97.50
23083;DHT22;11709;52.420;10.538;2023-04-23T11:23:29;22.80;96.10
23083;DHT22;11709;52.420;10.538;2023-04-23T11:27:33;23.50;97.00
23083;DHT22;11709;52.420;10.538;2023-04-23T11:31:37;23.90;94.30
23083;DHT22;11709;52.420;10.538;2023-04-23T11:35:40;23.90;92.90
23083;DHT22;11709;52.420;10.538;2023-04-23T11:39:44;23.50;92.00
23083;DHT22;11709;52.420;10.538;2023-04-23T11:43:47;23.50;91.70
23083;DHT22;11709;52.420;10.538;2023-04-23T11:47:55;24.30;90.50
23083;DHT22;11709;52.420;10.538;2023-04-23T11:51:59;24.30;86.20
23083;DHT22;11709;52.420;10.538;2023-04-23T11:56:03;24.30;87.90
23083;DHT22;11709;52.420;10.538;2023-04-23T12:00:18;24.50;84.40
23083;DHT22;11709;52.420;10.538;2023-04-23T12:04:22;24.80;83.20
23083;DHT22;11709;52.420;10.538;2023-04-23T12:08:30;24.80;82.50
23083;DHT22;11709;52.420;10.538;2023-04-23T12:12:33;24.00;81.40
23083;DHT22;11709;52.420;10.538;2023-04-23T12:16:41;23.70;83.70
23083;DHT22;11709;52.420;10.538;2023-04-23T12:20:44;24.50;83.10
23083;DHT22;11709;52.420;10.538;2023-04-23T12:24:48;25.00;79.10
23083;DHT22;11709;52.420;10.538;2023-04-23T12:28:53;24.90;79.00
23083;DHT22;11709;52.420;10.538;2023-04-23T12:33:02;24.30;78.30
23083;DHT22;11709;52.420;10.538;2023-04-23T12:37:07;24.50;77.50
23083;DHT22;11709;52.420;10.538;2023-04-23T12:41:09;24.30;75.30
23083;DHT22;11709;52.420;10.538;2023-04-23T12:45:12;24.70;78.20
23083;DHT22;11709;52.420;10.538;2023-04-23T12:49:14;25.30;74.20
23083;DHT22;11709;52.420;10.538;2023-04-23T12:53:17;25.60;71.10
23083;DHT22;11709;52.420;10.538;2023-04-23T12:57:20;25.40;71.50
23083;DHT22;11709;52.420;10.538;2023-04-23T13:01:23;25.20;74.30
23083;DHT22;11709;52.420;10.538;2023-04-23T13:05:26;24.70;77.80
23083;DHT22;11709;52.420;10.538;2023-04-23T13:09:28;24.10;79.70
23083;DHT22;11709;52.420;10.538;2023-04-23T13:13:40;23.70;78.30
23083;DHT22;11709;52.420;10.538;2023-04-23T13:17:46;23.30;79.20
23083;DHT22;11709;52.420;10.538;2023-04-23T13:21:49;23.10;82.50
23083;DHT22;11709;52.420;10.538;2023-04-23T13:25:51;23.40;78.00
23083;DHT22;11709;52.420;10.538;2023-04-23T13:29:54;23.40;76.20
23083;DHT22;11709;52.420;10.538;2023-04-23T13:33:57;22.80;77.60
23083;DHT22;11709;52.420;10.538;2023-04-23T13:37:59;22.20;79.60
23083;DHT22;11709;52.420;10.538;2023-04-23T13:42:02;21.50;82.20
23083;DHT22;11709;52.420;10.538;2023-04-23T13:46:06;20.40;90.10
23083;DHT22;11709;52.420;10.538;2023-04-23T13:50:10;19.80;92.40
23083;DHT22;11709;52.420;10.538;2023-04-23T13:54:12;19.40;93.90
23083;DHT22;11709;52.420;10.538;2023-04-23T13:58:18;18.80;94.10
23083;DHT22;11709;52.420;10.538;2023-04-23T14:02:21;18.40;95.60
23083;DHT22;11709;52.420;10.538;2023-04-23T14:06:24;18.20;96.00
23083;DHT22;11709;52.420;10.538;2023-04-23T14:10:27;18.10;94.90
23083;DHT22;11709;52.420;10.538;2023-04-23T14:14:30;18.20;94.90
23083;DHT22;11709;52.420;10.538;2023-04-23T14:18:33;18.30;93.90
23083;DHT22;11709;52.420;10.538;2023-04-23T14:22:35;18.60;93.40
23083;DHT22;11709;52.420;10.538;2023-04-23T14:26:38;19.00;92.40
23083;DHT22;11709;52.420;10.538;2023-04-23T14:30:42;19.60;93.40
23083;DHT22;11709;52.420;10.538;2023-04-23T14:34:45;20.60;93.30
23083;DHT22;11709;52.420;10.538;2023-04-23T14:38:47;20.90;93.90
23083;DHT22;11709;52.420;10.538;2023-04-23T14:42:50;20.90;94.30
23083;DHT22;11709;52.420;10.538;2023-04-23T14:46:52;21.10;93.20
23083;DHT22;11709;52.420;10.538;2023-04-23T14:50:55;21.40;91.30
23083;DHT22;11709;52.420;10.538;2023-04-23T14:54:57;21.30;85.30
23083;DHT22;11709;52.420;10.538;2023-04-23T14:59:00;21.50;84.20
23083;DHT22;11709;52.420;10.538;2023-04-23T15:03:03;21.50;86.80
23083;DHT22;11709;52.420;10.538;2023-04-23T15:07:10;21.50;84.60
23083;DHT22;11709;52.420;10.538;2023-04-23T15:11:12;21.20;87.00
23083;DHT22;11709;52.420;10.538;2023-04-23T15:15:26;21.00;88.60
23083;DHT22;11709;52.420;10.538;2023-04-23T15:19:30;20.60;88.80
23083;DHT22;11709;52.420;10.538;2023-04-23T15:23:33;20.00;91.30
23083;DHT22;11709;52.420;10.538;2023-04-23T15:27:36;19.20;93.30
23083;DHT22;11709;52.420;10.538;2023-04-23T15:31:39;19.00;93.60
23083;DHT22;11709;52.420;10.538;2023-04-23T15:35:42;18.80;94.50
23083;DHT22;11709;52.420;10.538;2023-04-23T15:39:44;18.60;95.60
23083;DHT22;11709;52.420;10.538;2023-04-23T15:48:16;18.10;98.10
23083;DHT22;11709;52.420;10.538;2023-04-23T15:52:18;18.00;97.70
23083;DHT22;11709;52.420;10.538;2023-04-23T15:56:21;17.90;97.90
23083;DHT22;11709;52.420;10.538;2023-04-23T16:00:23;17.70;97.90
23083;DHT22;11709;52.420;10.538;2023-04-23T16:04:26;17.70;98.90
23083;DHT22;11709;52.420;10.538;2023-04-23T16:08:28;17.80;99.80
23083;DHT22;11709;52.420;10.538;2023-04-23T16:12:31;18.00;99.90
23083;DHT22;11709;52.420;10.538;2023-04-23T16:16:34;18.50;99.90
23083;DHT22;11709;52.420;10.538;2023-04-23T16:20:38;19.00;99.50
23083;DHT22;11709;52.420;10.538;2023-04-23T16:24:41;19.40;97.50
23083;DHT22;11709;52.420;10.538;2023-04-23T16:28:45;19.50;98.00
23083;DHT22;11709;52.420;10.538;2023-04-23T16:32:47;19.30;97.50
23083;DHT22;11709;52.420;10.538;2023-04-23T16:36:50;19.20;99.90
23083;DHT22;11709;52.420;10.538;2023-04-23T16:40:52;19.00;99.90
23083;DHT22;11709;52.420;10.538;2023-04-23T16:44:56;18.60;99.90
23083;DHT22;11709;52.420;10.538;2023-04-23T16:49:00;18.40;99.90
23083;DHT22;11709;52.420;10.538;2023-04-23T16:53:03;18.00;99.90
23083;DHT22;11709;52.420;10.538;2023-04-23T16:57:05;17.90;99.90
23083;DHT22;11709;52.420;10.538;2023-04-23T17:01:08;17.70;99.90
23083;DHT22;11709;52.420;10.538;2023-04-23T17:05:11;17.60;99.90
23083;DHT22;11709;52.420;10.538;2023-04-23T17:09:13;17.60;99.90
23083;DHT22;11709;52.420;10.538;2023-04-23T17:13:16;17.70;99.90
23083;DHT22;11709;52.420;10.538;2023-04-23T17:17:19;17.60;99.90
23083;DHT22;11709;52.420;10.538;2023-04-23T17:21:23;17.60;99.90
23083;DHT22;11709;52.420;10.538;2023-04-23T17:25:26;17.60;99.90
23083;DHT22;11709;52.420;10.538;2023-04-23T17:29:28;17.60;99.90
23083;DHT22;11709;52.420;10.538;2023-04-23T17:33:31;17.60;99.90
23083;DHT22;11709;52.420;10.538;2023-04-23T17:37:34;17.50;99.90
23083;DHT22;11709;52.420;10.538;2023-04-23T17:41:36;17.50;99.90
23083;DHT22;11709;52.420;10.538;2023-04-23T17:45:39;17.10;99.90
23083;DHT22;11709;52.420;10.538;2023-04-23T17:49:41;17.10;99.90
23083;DHT22;11709;52.420;10.538;2023-04-23T17:53:44;17.10;99.90
23083;DHT22;11709;52.420;10.538;2023-04-23T17:57:50;17.00;99.90
23083;DHT22;11709;52.420;10.538;2023-04-23T18:01:52;17.00;99.90
23083;DHT22;11709;52.420;10.538;2023-04-23T18:05:55;16.80;99.90
23083;DHT22;11709;52.420;10.538;2023-04-23T18:09:57;16.60;99.90
23083;DHT22;11709;52.420;10.538;2023-04-23T18:14:00;16.50;99.90
23083;DHT22;11709;52.420;10.538;2023-04-23T18:18:02;16.40;99.90
23083;DHT22;11709;52.420;10.538;2023-04-23T18:22:05;16.40;99.90
23083;DHT22;11709;52.420;10.538;2023-04-23T18:26:08;16.30;99.90
23083;DHT22;11709;52.420;10.538;2023-04-23T18:30:14;16.30;99.90
23083;DHT22;11709;52.420;10.538;2023-04-23T18:34:17;16.10;99.90
23083;DHT22;11709;52.420;10.538;2023-04-23T18:38:24;16.00;99.90
23083;DHT22;11709;52.420;10.538;2023-04-23T18:46:38;15.80;99.90
23083;DHT22;11709;52.420;10.538;2023-04-23T18:50:47;15.70;99.90
23083;DHT22;11709;52.420;10.538;2023-04-23T18:54:49;15.70;99.90
23083;DHT22;11709;52.420;10.538;2023-04-23T18:58:53;15.60;99.90
23083;DHT22;11709;52.420;10.538;2023-04-23T19:02:56;15.60;99.90
23083;DHT22;11709;52.420;10.538;2023-04-23T19:06:59;15.60;99.90
23083;DHT22;11709;52.420;10.538;2023-04-23T19:11:02;15.50;99.90
23083;DHT22;11709;52.420;10.538;2023-04-23T19:15:05;15.40;99.90
23083;DHT22;11709;52.420;10.538;2023-04-23T19:19:08;15.40;99.90
23083;DHT22;11709;52.420;10.538;2023-04-23T19:23:10;15.30;99.90
23083;DHT22;11709;52.420;10.538;2023-04-23T19:27:13;15.30;99.90
23083;DHT22;11709;52.420;10.538;2023-04-23T19:31:15;15.20;99.90
23083;DHT22;11709;52.420;10.538;2023-04-23T19:35:18;15.10;99.90
23083;DHT22;11709;52.420;10.538;2023-04-23T19:39:20;15.00;99.90
23083;DHT22;11709;52.420;10.538;2023-04-23T19:43:23;14.90;99.90
23083;DHT22;11709;52.420;10.538;2023-04-23T19:47:26;14.80;99.90
23083;DHT22;11709;52.420;10.538;2023-04-23T19:51:31;14.80;99.90
23083;DHT22;11709;52.420;10.538;2023-04-23T19:55:35;14.70;99.90
23083;DHT22;11709;52.420;10.538;2023-04-23T19:59:37;14.70;99.90
23083;DHT22;11709;52.420;10.538;2023-04-23T20:03:40;14.60;99.90
23083;DHT22;11709;52.420;10.538;2023-04-23T20:07:44;14.40;99.90
23083;DHT22;11709;52.420;10.538;2023-04-23T20:11:47;14.30;99.90
23083;DHT22;11709;52.420;10.538;2023-04-23T20:15:49;14.20;99.90
23083;DHT22;11709;52.420;10.538;2023-04-23T20:19:53;14.10;99.90
23083;DHT22;11709;52.420;10.538;2023-04-23T20:23:55;14.00;99.90
23083;DHT22;11709;52.420;10.538;2023-04-23T20:27:57;14.00;99.90
23083;DHT22;11709;52.420;10.538;2023-04-23T20:31:59;14.00;99.90
23083;DHT22;11709;52.420;10.538;2023-04-23T20:36:01;13.90;99.90
23083;DHT22;11709;52.420;10.538;2023-04-23T20:40:04;13.90;99.90
23083;DHT22;11709;52.420;10.538;2023-04-23T20:44:09;14.00;99.90
23083;DHT22;11709;52.420;10.538;2023-04-23T20:48:12;14.00;99.90
23083;DHT22;11709;52.420;10.538;2023-04-23T20:52:14;14.10;99.90
23083;DHT22;11709;52.420;10.538;2023-04-23T20:56:17;13.90;99.90
23083;DHT22;11709;52.420;10.538;2023-04-23T21:00:19;13.80;99.90
23083;DHT22;11709;52.420;10.538;2023-04-23T21:04:22;13.80;99.90
23083;DHT22;11709;52.420;10.538;2023-04-23T21:08:23;13.80;99.90
23083;DHT22;11709;52.420;10.538;2023-04-23T21:12:25;13.80;99.90
23083;DHT22;11709;52.420;10.538;2023-04-23T21:16:27;13.90;99.90
23083;DHT22;11709;52.420;10.538;2023-04-23T21:20:29;13.90;99.90
23083;DHT22;11709;52.420;10.538;2023-04-23T21:24:31;14.00;99.90
23083;DHT22;11709;52.420;10.538;2023-04-23T21:28:33;14.00;99.90
23083;DHT22;11709;52.420;10.538;2023-04-23T21:32:35;14.10;99.90
23083;DHT22;11709;52.420;10.538;2023-04-23T21:36:37;14.10;99.90
23083;DHT22;11709;52.420;10.538;2023-04-23T21:40:39;14.10;99.90
23083;DHT22;11709;52.420;10.538;2023-04-23T21:44:41;14.10;99.90
23083;DHT22;11709;52.420;10.538;2023-04-23T21:48:46;14.10;99.90
23083;DHT22;11709;52.420;10.538;2023-04-23T21:52:47;14.10;99.90
23083;DHT22;11709;52.420;10.538;2023-04-23T21:56:50;14.20;99.90
23083;DHT22;11709;52.420;10.538;2023-04-23T22:00:52;14.30;99.90
23083;DHT22;11709;52.420;10.538;2023-04-23T22:04:54;14.30;99.90
23083;DHT22;11709;52.420;10.538;2023-04-23T22:08:56;14.30;99.90
23083;DHT22;11709;52.420;10.538;2023-04-23T22:12:57;14.30;99.90
23083;DHT22;11709;52.420;10.538;2023-04-23T22:17:00;14.30;99.90
23083;DHT22;11709;52.420;10.538;2023-04-23T22:21:02;14.60;99.90
23083;DHT22;11709;52.420;10.538;2023-04-23T22:25:05;14.80;99.90
23083;DHT22;11709;52.420;10.538;2023-04-23T22:29:07;14.90;99.90
23083;DHT22;11709;52.420;10.538;2023-04-23T22:33:09;14.90;99.90
23083;DHT22;11709;52.420;10.538;2023-04-23T22:37:11;14.90;99.90
23083;DHT22;11709;52.420;10.538;2023-04-23T22:41:12;14.90;99.90
23083;DHT22;11709;52.420;10.538;2023-04-23T22:45:14;14.90;99.90
23083;DHT22;11709;52.420;10.538;2023-04-23T22:49:16;14.80;99.90
23083;DHT22;11709;52.420;10.538;2023-04-23T22:53:18;14.80;99.90
23083;DHT22;11709;52.420;10.538;2023-04-23T22:57:20;14.80;99.90
23083;DHT22;11709;52.420;10.538;2023-04-23T23:01:22;14.70;99.90
23083;DHT22;11709;52.420;10.538;2023-04-23T23:05:24;14.70;99.90
23083;DHT22;11709;52.420;10.538;2023-04-23T23:09:27;14.70;99.90
23083;DHT22;11709;52.420;10.538;2023-04-23T23:13:28;14.90;99.90
23083;DHT22;11709;52.420;10.538;2023-04-23T23:17:31;14.70;99.90
23083;DHT22;11709;52.420;10.538;2023-04-23T23:21:32;14.70;99.90
23083;DHT22;11709;52.420;10.538;2023-04-23T23:25:35;14.70;99.90
23083;DHT22;11709;52.420;10.538;2023-04-23T23:29:38;14.70;99.90
23083;DHT22;11709;52.420;10.538;2023-04-23T23:33:39;14.60;99.90
23083;DHT22;11709;52.420;10.538;2023-04-23T23:37:41;14.60;99.90
23083;DHT22;11709;52.420;10.538;2023-04-23T23:41:43;14.60;99.90
23083;DHT22;11709;52.420;10.538;2023-04-23T23:45:46;14.60;99.90
23083;DHT22;11709;52.420;10.538;2023-04-23T23:49:48;14.50;99.90
23083;DHT22;11709;52.420;10.538;2023-04-23T23:53:50;14.50;99.90
23083;DHT22;11709;52.420;10.538;2023-04-23T23:57:52;14.40;99.90
